sensor_id;sensor_type;location;lat;lon;timestamp;temperature;humidity
52565;DHT22;38460;53.106;7.004;2022-09-09T00:00:13;14.70;99.90
52565;DHT22;38460;53.106;7.004;2022-09-09T00:02:46;14.70;99.90
52565;DHT22;38460;53.106;7.004;2022-09-09T00:05:47;14.70;99.90
52565;DHT22;38460;53.106;7.004;2022-09-09T00:08:20;14.60;99.90
52565;DHT22;38460;53.106;7.004;2022-09-09T00:10:53;14.70;99.90
52565;DHT22;38460;53.106;7.004;2022-09-09T00:13:37;14.60;99.90
52565;DHT22;38460;53.106;7.004;2022-09-09T00:16:17;14.60;99.90
52565;DHT22;38460;53.106;7.004;2022-09-09T00:21:43;14.60;99.90
52565;DHT22;38460;53.106;7.004;2022-09-09T00:27:11;14.60;99.90
52565;DHT22;38460;53.106;7.004;2022-09-09T00:29:53;14.60;99.90
52565;DHT22;38460;53.106;7.004;2022-09-09T00:32:21;14.60;99.90
52565;DHT22;38460;53.106;7.004;2022-09-09T00:34:49;14.50;99.90
52565;DHT22;38460;53.106;7.004;2022-09-09T00:37:16;14.60;99.90
52565;DHT22;38460;53.106;7.004;2022-09-09T00:39:45;14.50;99.90
52565;DHT22;38460;53.106;7.004;2022-09-09T00:42:24;14.50;99.90
52565;DHT22;38460;53.106;7.004;2022-09-09T00:47:51;14.50;99.90
52565;DHT22;38460;53.106;7.004;2022-09-09T00:56:13;14.50;99.90
52565;DHT22;38460;53.106;7.004;2022-09-09T00:58:43;14.50;99.90
52565;DHT22;38460;53.106;7.004;2022-09-09T01:01:16;14.40;99.90
52565;DHT22;38460;53.106;7.004;2022-09-09T01:03:55;14.40;99.90
52565;DHT22;38460;53.106;7.004;2022-09-09T01:06:30;14.40;99.90
52565;DHT22;38460;53.106;7.004;2022-09-09T01:11:52;14.30;99.90
52565;DHT22;38460;53.106;7.004;2022-09-09T01:14:32;14.40;99.90
52565;DHT22;38460;53.106;7.004;2022-09-09T01:17:08;14.30;99.90
52565;DHT22;38460;53.106;7.004;2022-09-09T01:27:31;14.30;99.90
52565;DHT22;38460;53.106;7.004;2022-09-09T01:29:58;14.30;99.90
52565;DHT22;38460;53.106;7.004;2022-09-09T01:32:49;14.30;99.90
52565;DHT22;38460;53.106;7.004;2022-09-09T01:35:28;14.30;99.90
52565;DHT22;38460;53.106;7.004;2022-09-09T01:37:57;14.20;99.90
52565;DHT22;38460;53.106;7.004;2022-09-09T01:40:24;14.20;99.90
52565;DHT22;38460;53.106;7.004;2022-09-09T01:42:49;14.20;99.90
52565;DHT22;38460;53.106;7.004;2022-09-09T01:45:15;14.20;99.90
52565;DHT22;38460;53.106;7.004;2022-09-09T01:47:41;14.20;99.90
52565;DHT22;38460;53.106;7.004;2022-09-09T01:50:09;14.20;99.90
52565;DHT22;38460;53.106;7.004;2022-09-09T01:52:37;14.20;99.90
52565;DHT22;38460;53.106;7.004;2022-09-09T01:55:04;14.10;99.90
52565;DHT22;38460;53.106;7.004;2022-09-09T01:57:50;14.10;99.90
52565;DHT22;38460;53.106;7.004;2022-09-09T02:00:18;14.10;99.90
52565;DHT22;38460;53.106;7.004;2022-09-09T02:03:05;14.10;99.90
52565;DHT22;38460;53.106;7.004;2022-09-09T02:09:05;14.10;99.90
52565;DHT22;38460;53.106;7.004;2022-09-09T02:11:33;14.10;99.90
52565;DHT22;38460;53.106;7.004;2022-09-09T02:14:10;14.10;99.90
52565;DHT22;38460;53.106;7.004;2022-09-09T02:16:59;14.30;99.90
52565;DHT22;38460;53.106;7.004;2022-09-09T02:19:30;14.00;99.90
52565;DHT22;38460;53.106;7.004;2022-09-09T02:21:59;14.10;99.90
52565;DHT22;38460;53.106;7.004;2022-09-09T02:24:28;14.10;99.90
52565;DHT22;38460;53.106;7.004;2022-09-09T02:26:56;14.10;99.90
52565;DHT22;38460;53.106;7.004;2022-09-09T02:29:30;14.00;99.90
52565;DHT22;38460;53.106;7.004;2022-09-09T02:32:03;14.10;99.90
52565;DHT22;38460;53.106;7.004;2022-09-09T02:34:32;14.00;99.90
52565;DHT22;38460;53.106;7.004;2022-09-09T02:37:01;14.00;99.90
52565;DHT22;38460;53.106;7.004;2022-09-09T02:39:28;14.00;99.90
52565;DHT22;38460;53.106;7.004;2022-09-09T02:41:54;13.90;99.90
52565;DHT22;38460;53.106;7.004;2022-09-09T02:44:19;13.90;99.90
52565;DHT22;38460;53.106;7.004;2022-09-09T02:47:00;13.90;99.90
52565;DHT22;38460;53.106;7.004;2022-09-09T02:58:11;13.90;99.90
52565;DHT22;38460;53.106;7.004;2022-09-09T03:00:39;13.90;99.90
52565;DHT22;38460;53.106;7.004;2022-09-09T03:03:06;13.90;99.90
52565;DHT22;38460;53.106;7.004;2022-09-09T03:05:32;13.90;99.90
52565;DHT22;38460;53.106;7.004;2022-09-09T03:07:58;13.90;99.90
52565;DHT22;38460;53.106;7.004;2022-09-09T03:10:24;13.90;99.90
52565;DHT22;38460;53.106;7.004;2022-09-09T03:12:50;13.90;99.90
52565;DHT22;38460;53.106;7.004;2022-09-09T03:15:16;14.00;99.90
52565;DHT22;38460;53.106;7.004;2022-09-09T03:17:42;13.90;99.90
52565;DHT22;38460;53.106;7.004;2022-09-09T03:20:08;14.00;99.90
52565;DHT22;38460;53.106;7.004;2022-09-09T03:22:34;14.00;99.90
52565;DHT22;38460;53.106;7.004;2022-09-09T03:25:00;14.00;99.90
52565;DHT22;38460;53.106;7.004;2022-09-09T03:27:27;14.00;99.90
52565;DHT22;38460;53.106;7.004;2022-09-09T03:29:53;14.00;99.90
52565;DHT22;38460;53.106;7.004;2022-09-09T03:32:19;14.00;99.90
52565;DHT22;38460;53.106;7.004;2022-09-09T03:34:48;14.00;99.90
52565;DHT22;38460;53.106;7.004;2022-09-09T03:37:15;14.10;99.90
52565;DHT22;38460;53.106;7.004;2022-09-09T03:39:41;14.10;99.90
52565;DHT22;38460;53.106;7.004;2022-09-09T03:42:07;14.10;99.90
52565;DHT22;38460;53.106;7.004;2022-09-09T03:44:33;14.10;99.90
52565;DHT22;38460;53.106;7.004;2022-09-09T03:46:59;14.10;99.90
52565;DHT22;38460;53.106;7.004;2022-09-09T03:49:27;14.10;99.90
52565;DHT22;38460;53.106;7.004;2022-09-09T03:51:56;14.20;99.90
52565;DHT22;38460;53.106;7.004;2022-09-09T03:54:24;14.20;99.90
52565;DHT22;38460;53.106;7.004;2022-09-09T03:56:49;14.20;99.90
52565;DHT22;38460;53.106;7.004;2022-09-09T03:59:15;14.20;99.90
52565;DHT22;38460;53.106;7.004;2022-09-09T04:01:41;14.20;99.90
52565;DHT22;38460;53.106;7.004;2022-09-09T04:04:07;14.20;99.90
52565;DHT22;38460;53.106;7.004;2022-09-09T04:06:33;14.20;99.90
52565;DHT22;38460;53.106;7.004;2022-09-09T04:08:58;14.30;99.90
52565;DHT22;38460;53.106;7.004;2022-09-09T04:11:24;14.30;99.90
52565;DHT22;38460;53.106;7.004;2022-09-09T04:13:50;14.30;99.90
52565;DHT22;38460;53.106;7.004;2022-09-09T04:16:15;14.30;99.90
52565;DHT22;38460;53.106;7.004;2022-09-09T04:18:41;14.30;99.90
52565;DHT22;38460;53.106;7.004;2022-09-09T04:21:09;14.30;99.90
52565;DHT22;38460;53.106;7.004;2022-09-09T04:23:35;14.30;99.90
52565;DHT22;38460;53.106;7.004;2022-09-09T04:26:02;14.30;99.90
52565;DHT22;38460;53.106;7.004;2022-09-09T04:28:30;14.30;99.90
52565;DHT22;38460;53.106;7.004;2022-09-09T04:30:56;14.30;99.90
52565;DHT22;38460;53.106;7.004;2022-09-09T04:33:25;14.30;99.90
52565;DHT22;38460;53.106;7.004;2022-09-09T04:35:52;14.30;99.90
52565;DHT22;38460;53.106;7.004;2022-09-09T04:38:20;14.30;99.90
52565;DHT22;38460;53.106;7.004;2022-09-09T04:40:48;14.30;99.90
52565;DHT22;38460;53.106;7.004;2022-09-09T04:43:15;14.30;99.90
52565;DHT22;38460;53.106;7.004;2022-09-09T04:45:42;14.30;99.90
52565;DHT22;38460;53.106;7.004;2022-09-09T04:48:08;14.30;99.90
52565;DHT22;38460;53.106;7.004;2022-09-09T04:50:35;14.30;99.90
52565;DHT22;38460;53.106;7.004;2022-09-09T04:53:04;14.30;99.90
52565;DHT22;38460;53.106;7.004;2022-09-09T04:55:31;14.30;99.90
52565;DHT22;38460;53.106;7.004;2022-09-09T04:57:57;14.30;99.90
52565;DHT22;38460;53.106;7.004;2022-09-09T05:00:23;14.30;99.90
52565;DHT22;38460;53.106;7.004;2022-09-09T05:02:49;14.30;99.90
52565;DHT22;38460;53.106;7.004;2022-09-09T05:05:16;14.30;99.90
52565;DHT22;38460;53.106;7.004;2022-09-09T05:07:42;14.30;99.90
52565;DHT22;38460;53.106;7.004;2022-09-09T05:10:08;14.30;99.90
52565;DHT22;38460;53.106;7.004;2022-09-09T05:12:36;14.30;99.90
52565;DHT22;38460;53.106;7.004;2022-09-09T05:15:01;14.30;99.90
52565;DHT22;38460;53.106;7.004;2022-09-09T05:17:27;14.30;99.90
52565;DHT22;38460;53.106;7.004;2022-09-09T05:19:53;14.30;99.90
52565;DHT22;38460;53.106;7.004;2022-09-09T05:22:19;14.30;99.90
52565;DHT22;38460;53.106;7.004;2022-09-09T05:24:46;14.20;99.90
52565;DHT22;38460;53.106;7.004;2022-09-09T05:27:11;14.20;99.90
52565;DHT22;38460;53.106;7.004;2022-09-09T05:29:38;14.20;99.90
52565;DHT22;38460;53.106;7.004;2022-09-09T05:32:04;14.20;99.90
52565;DHT22;38460;53.106;7.004;2022-09-09T05:34:30;14.20;99.90
52565;DHT22;38460;53.106;7.004;2022-09-09T05:36:56;14.20;99.90
52565;DHT22;38460;53.106;7.004;2022-09-09T05:39:21;14.20;99.90
52565;DHT22;38460;53.106;7.004;2022-09-09T05:41:47;14.30;99.90
52565;DHT22;38460;53.106;7.004;2022-09-09T05:44:13;14.20;99.90
52565;DHT22;38460;53.106;7.004;2022-09-09T05:46:38;14.20;99.90
52565;DHT22;38460;53.106;7.004;2022-09-09T05:49:05;14.20;99.90
52565;DHT22;38460;53.106;7.004;2022-09-09T05:51:31;14.20;99.90
52565;DHT22;38460;53.106;7.004;2022-09-09T05:53:57;14.20;99.90
52565;DHT22;38460;53.106;7.004;2022-09-09T05:56:27;14.20;99.90
52565;DHT22;38460;53.106;7.004;2022-09-09T05:58:54;14.20;99.90
52565;DHT22;38460;53.106;7.004;2022-09-09T06:01:47;14.20;99.90
52565;DHT22;38460;53.106;7.004;2022-09-09T06:04:14;14.20;99.90
52565;DHT22;38460;53.106;7.004;2022-09-09T06:06:40;14.20;99.90
52565;DHT22;38460;53.106;7.004;2022-09-09T06:09:08;14.20;99.90
52565;DHT22;38460;53.106;7.004;2022-09-09T06:11:37;14.20;99.90
52565;DHT22;38460;53.106;7.004;2022-09-09T06:14:04;14.30;99.90
52565;DHT22;38460;53.106;7.004;2022-09-09T06:16:30;14.30;99.90
52565;DHT22;38460;53.106;7.004;2022-09-09T06:18:58;14.30;99.90
52565;DHT22;38460;53.106;7.004;2022-09-09T06:21:25;14.30;99.90
52565;DHT22;38460;53.106;7.004;2022-09-09T06:23:51;14.30;99.90
52565;DHT22;38460;53.106;7.004;2022-09-09T06:26:29;14.30;99.90
52565;DHT22;38460;53.106;7.004;2022-09-09T06:28:56;14.30;99.90
52565;DHT22;38460;53.106;7.004;2022-09-09T06:31:25;14.30;99.90
52565;DHT22;38460;53.106;7.004;2022-09-09T06:33:53;14.30;99.90
52565;DHT22;38460;53.106;7.004;2022-09-09T06:36:32;14.30;99.90
52565;DHT22;38460;53.106;7.004;2022-09-09T06:38:58;14.40;99.90
52565;DHT22;38460;53.106;7.004;2022-09-09T06:41:28;14.40;99.90
52565;DHT22;38460;53.106;7.004;2022-09-09T06:43:54;14.40;99.90
52565;DHT22;38460;53.106;7.004;2022-09-09T06:46:28;14.40;99.90
52565;DHT22;38460;53.106;7.004;2022-09-09T06:48:55;14.40;99.90
52565;DHT22;38460;53.106;7.004;2022-09-09T06:51:22;14.40;99.90
52565;DHT22;38460;53.106;7.004;2022-09-09T06:53:53;14.50;99.90
52565;DHT22;38460;53.106;7.004;2022-09-09T06:56:26;14.60;99.90
52565;DHT22;38460;53.106;7.004;2022-09-09T06:58:54;14.60;99.90
52565;DHT22;38460;53.106;7.004;2022-09-09T07:01:23;14.60;99.90
52565;DHT22;38460;53.106;7.004;2022-09-09T07:03:51;14.70;99.90
52565;DHT22;38460;53.106;7.004;2022-09-09T07:06:20;14.80;99.90
52565;DHT22;38460;53.106;7.004;2022-09-09T07:08:54;14.80;99.90
52565;DHT22;38460;53.106;7.004;2022-09-09T07:11:22;14.80;99.90
52565;DHT22;38460;53.106;7.004;2022-09-09T07:13:48;14.90;99.90
52565;DHT22;38460;53.106;7.004;2022-09-09T07:16:17;14.90;99.90
52565;DHT22;38460;53.106;7.004;2022-09-09T07:18:43;14.90;99.90
52565;DHT22;38460;53.106;7.004;2022-09-09T07:21:11;15.00;99.90
52565;DHT22;38460;53.106;7.004;2022-09-09T07:23:40;15.00;99.90
52565;DHT22;38460;53.106;7.004;2022-09-09T07:26:14;15.00;99.90
52565;DHT22;38460;53.106;7.004;2022-09-09T07:28:40;15.10;99.90
52565;DHT22;38460;53.106;7.004;2022-09-09T07:31:08;15.10;99.90
52565;DHT22;38460;53.106;7.004;2022-09-09T07:33:39;15.10;99.90
52565;DHT22;38460;53.106;7.004;2022-09-09T07:36:25;15.20;99.90
52565;DHT22;38460;53.106;7.004;2022-09-09T07:38:53;15.30;99.90
52565;DHT22;38460;53.106;7.004;2022-09-09T07:41:32;15.30;99.90
52565;DHT22;38460;53.106;7.004;2022-09-09T07:44:03;15.40;99.90
52565;DHT22;38460;53.106;7.004;2022-09-09T07:46:29;15.40;99.90
52565;DHT22;38460;53.106;7.004;2022-09-09T07:48:56;15.40;99.90
52565;DHT22;38460;53.106;7.004;2022-09-09T07:51:23;15.50;99.90
52565;DHT22;38460;53.106;7.004;2022-09-09T07:53:55;15.50;99.90
52565;DHT22;38460;53.106;7.004;2022-09-09T07:56:21;15.50;99.90
52565;DHT22;38460;53.106;7.004;2022-09-09T07:58:51;15.50;99.90
52565;DHT22;38460;53.106;7.004;2022-09-09T08:01:24;15.60;99.90
52565;DHT22;38460;53.106;7.004;2022-09-09T08:04:01;15.60;99.90
52565;DHT22;38460;53.106;7.004;2022-09-09T08:06:29;15.70;99.90
52565;DHT22;38460;53.106;7.004;2022-09-09T08:08:55;15.70;99.90
52565;DHT22;38460;53.106;7.004;2022-09-09T08:11:23;15.80;99.90
52565;DHT22;38460;53.106;7.004;2022-09-09T08:13:51;15.80;99.90
52565;DHT22;38460;53.106;7.004;2022-09-09T08:16:19;15.90;99.90
52565;DHT22;38460;53.106;7.004;2022-09-09T08:18:51;16.00;99.90
52565;DHT22;38460;53.106;7.004;2022-09-09T08:21:20;16.00;99.90
52565;DHT22;38460;53.106;7.004;2022-09-09T08:23:47;16.10;99.90
52565;DHT22;38460;53.106;7.004;2022-09-09T08:26:18;16.10;99.90
52565;DHT22;38460;53.106;7.004;2022-09-09T08:28:49;16.20;99.90
52565;DHT22;38460;53.106;7.004;2022-09-09T08:31:18;16.20;99.90
52565;DHT22;38460;53.106;7.004;2022-09-09T08:33:45;16.20;99.90
52565;DHT22;38460;53.106;7.004;2022-09-09T08:36:17;16.20;99.90
52565;DHT22;38460;53.106;7.004;2022-09-09T08:38:43;16.20;99.90
52565;DHT22;38460;53.106;7.004;2022-09-09T08:52:47;16.60;99.90
52565;DHT22;38460;53.106;7.004;2022-09-09T08:58:02;16.80;99.90
52565;DHT22;38460;53.106;7.004;2022-09-09T09:00:42;16.80;99.90
52565;DHT22;38460;53.106;7.004;2022-09-09T09:03:39;16.90;99.90
52565;DHT22;38460;53.106;7.004;2022-09-09T09:11:42;17.10;99.90
52565;DHT22;38460;53.106;7.004;2022-09-09T09:14:19;17.20;99.90
52565;DHT22;38460;53.106;7.004;2022-09-09T09:19:23;17.20;99.90
52565;DHT22;38460;53.106;7.004;2022-09-09T09:27:43;17.30;99.90
52565;DHT22;38460;53.106;7.004;2022-09-09T09:30:12;17.40;99.90
52565;DHT22;38460;53.106;7.004;2022-09-09T09:32:49;17.40;99.90
52565;DHT22;38460;53.106;7.004;2022-09-09T09:35:17;17.40;99.90
52565;DHT22;38460;53.106;7.004;2022-09-09T09:37:43;17.50;99.90
52565;DHT22;38460;53.106;7.004;2022-09-09T09:40:15;17.50;99.90
52565;DHT22;38460;53.106;7.004;2022-09-09T09:42:58;17.60;99.90
52565;DHT22;38460;53.106;7.004;2022-09-09T09:45:35;17.70;99.90
52565;DHT22;38460;53.106;7.004;2022-09-09T09:48:09;17.80;99.90
52565;DHT22;38460;53.106;7.004;2022-09-09T09:50:59;18.00;99.90
52565;DHT22;38460;53.106;7.004;2022-09-09T09:53:27;18.10;99.90
52565;DHT22;38460;53.106;7.004;2022-09-09T09:55:58;18.30;99.90
52565;DHT22;38460;53.106;7.004;2022-09-09T09:58:27;18.30;99.90
52565;DHT22;38460;53.106;7.004;2022-09-09T10:00:56;18.30;99.90
52565;DHT22;38460;53.106;7.004;2022-09-09T10:03:33;18.20;99.90
52565;DHT22;38460;53.106;7.004;2022-09-09T10:06:04;18.20;99.90
52565;DHT22;38460;53.106;7.004;2022-09-09T10:08:34;18.20;99.90
52565;DHT22;38460;53.106;7.004;2022-09-09T10:11:17;18.20;99.90
52565;DHT22;38460;53.106;7.004;2022-09-09T10:17:06;18.40;99.90
52565;DHT22;38460;53.106;7.004;2022-09-09T10:19:37;18.40;99.90
52565;DHT22;38460;53.106;7.004;2022-09-09T10:22:26;18.50;99.90
52565;DHT22;38460;53.106;7.004;2022-09-09T10:30:24;18.90;99.90
52565;DHT22;38460;53.106;7.004;2022-09-09T10:33:10;19.10;99.90
52565;DHT22;38460;53.106;7.004;2022-09-09T10:44:18;19.30;99.90
52565;DHT22;38460;53.106;7.004;2022-09-09T10:47:23;19.30;99.90
52565;DHT22;38460;53.106;7.004;2022-09-09T10:55:50;19.60;99.90
52565;DHT22;38460;53.106;7.004;2022-09-09T10:58:36;19.70;99.90
52565;DHT22;38460;53.106;7.004;2022-09-09T11:01:20;19.70;99.90
52565;DHT22;38460;53.106;7.004;2022-09-09T11:03:55;19.90;99.90
52565;DHT22;38460;53.106;7.004;2022-09-09T11:06:28;20.10;99.90
52565;DHT22;38460;53.106;7.004;2022-09-09T11:08:56;20.20;99.90
52565;DHT22;38460;53.106;7.004;2022-09-09T11:11:39;20.30;99.90
52565;DHT22;38460;53.106;7.004;2022-09-09T11:21:49;20.70;99.90
52565;DHT22;38460;53.106;7.004;2022-09-09T11:26:57;20.90;99.90
52565;DHT22;38460;53.106;7.004;2022-09-09T11:40:24;21.50;99.90
52565;DHT22;38460;53.106;7.004;2022-09-09T11:43:11;21.60;99.90
52565;DHT22;38460;53.106;7.004;2022-09-09T11:45:40;21.70;99.90
52565;DHT22;38460;53.106;7.004;2022-09-09T11:48:29;21.70;99.90
52565;DHT22;38460;53.106;7.004;2022-09-09T11:59:30;21.80;99.90
52565;DHT22;38460;53.106;7.004;2022-09-09T12:02:24;21.80;99.90
52565;DHT22;38460;53.106;7.004;2022-09-09T12:05:07;22.00;99.90
52565;DHT22;38460;53.106;7.004;2022-09-09T12:07:40;22.20;99.90
52565;DHT22;38460;53.106;7.004;2022-09-09T12:12:38;22.30;99.90
52565;DHT22;38460;53.106;7.004;2022-09-09T12:17:45;22.10;99.90
52565;DHT22;38460;53.106;7.004;2022-09-09T12:20:21;22.00;99.90
52565;DHT22;38460;53.106;7.004;2022-09-09T12:23:14;21.90;99.90
52565;DHT22;38460;53.106;7.004;2022-09-09T12:28:15;22.00;99.90
52565;DHT22;38460;53.106;7.004;2022-09-09T12:33:17;21.90;99.90
52565;DHT22;38460;53.106;7.004;2022-09-09T12:35:47;21.80;99.90
52565;DHT22;38460;53.106;7.004;2022-09-09T12:38:26;21.70;99.90
52565;DHT22;38460;53.106;7.004;2022-09-09T12:40:56;21.70;99.90
52565;DHT22;38460;53.106;7.004;2022-09-09T12:43:24;21.60;99.90
52565;DHT22;38460;53.106;7.004;2022-09-09T12:45:57;21.60;99.90
52565;DHT22;38460;53.106;7.004;2022-09-09T12:48:38;21.60;99.90
52565;DHT22;38460;53.106;7.004;2022-09-09T12:51:26;21.60;99.90
52565;DHT22;38460;53.106;7.004;2022-09-09T12:53:54;21.70;99.90
52565;DHT22;38460;53.106;7.004;2022-09-09T12:56:26;21.80;99.90
52565;DHT22;38460;53.106;7.004;2022-09-09T12:58:54;21.70;99.90
52565;DHT22;38460;53.106;7.004;2022-09-09T13:01:32;21.70;99.90
52565;DHT22;38460;53.106;7.004;2022-09-09T13:03:59;21.60;99.90
52565;DHT22;38460;53.106;7.004;2022-09-09T13:06:27;21.70;99.90
52565;DHT22;38460;53.106;7.004;2022-09-09T13:08:55;22.00;99.90
52565;DHT22;38460;53.106;7.004;2022-09-09T13:11:40;22.20;99.90
52565;DHT22;38460;53.106;7.004;2022-09-09T13:14:31;22.40;99.90
52565;DHT22;38460;53.106;7.004;2022-09-09T13:17:02;22.50;99.90
52565;DHT22;38460;53.106;7.004;2022-09-09T13:19:37;22.60;99.90
52565;DHT22;38460;53.106;7.004;2022-09-09T13:22:36;22.60;99.90
52565;DHT22;38460;53.106;7.004;2022-09-09T13:27:34;22.40;99.90
52565;DHT22;38460;53.106;7.004;2022-09-09T13:30:01;22.30;99.90
52565;DHT22;38460;53.106;7.004;2022-09-09T13:32:27;22.30;99.90
52565;DHT22;38460;53.106;7.004;2022-09-09T13:35:00;22.30;99.90
52565;DHT22;38460;53.106;7.004;2022-09-09T13:37:37;22.20;99.90
52565;DHT22;38460;53.106;7.004;2022-09-09T13:40:05;22.10;99.90
52565;DHT22;38460;53.106;7.004;2022-09-09T13:42:34;21.90;99.90
52565;DHT22;38460;53.106;7.004;2022-09-09T13:45:02;21.90;99.90
52565;DHT22;38460;53.106;7.004;2022-09-09T13:47:34;21.80;99.90
52565;DHT22;38460;53.106;7.004;2022-09-09T13:50:20;21.70;99.90
52565;DHT22;38460;53.106;7.004;2022-09-09T13:52:50;21.60;99.90
52565;DHT22;38460;53.106;7.004;2022-09-09T13:55:19;21.40;99.90
52565;DHT22;38460;53.106;7.004;2022-09-09T13:57:54;21.20;99.90
52565;DHT22;38460;53.106;7.004;2022-09-09T14:00:21;21.10;99.90
52565;DHT22;38460;53.106;7.004;2022-09-09T14:02:51;21.10;99.90
52565;DHT22;38460;53.106;7.004;2022-09-09T14:05:18;20.90;99.90
52565;DHT22;38460;53.106;7.004;2022-09-09T14:07:44;20.90;99.90
52565;DHT22;38460;53.106;7.004;2022-09-09T14:10:11;20.70;99.90
52565;DHT22;38460;53.106;7.004;2022-09-09T14:12:37;20.60;99.90
52565;DHT22;38460;53.106;7.004;2022-09-09T14:15:05;20.50;99.90
52565;DHT22;38460;53.106;7.004;2022-09-09T14:17:32;20.40;99.90
52565;DHT22;38460;53.106;7.004;2022-09-09T14:19:58;20.10;99.90
52565;DHT22;38460;53.106;7.004;2022-09-09T14:22:24;20.00;99.90
52565;DHT22;38460;53.106;7.004;2022-09-09T14:24:50;19.80;99.90
52565;DHT22;38460;53.106;7.004;2022-09-09T14:27:17;19.60;99.90
52565;DHT22;38460;53.106;7.004;2022-09-09T14:29:44;19.60;99.90
52565;DHT22;38460;53.106;7.004;2022-09-09T14:32:10;19.50;99.90
52565;DHT22;38460;53.106;7.004;2022-09-09T14:34:36;19.50;99.90
52565;DHT22;38460;53.106;7.004;2022-09-09T14:37:03;19.40;99.90
52565;DHT22;38460;53.106;7.004;2022-09-09T14:39:28;19.40;99.90
52565;DHT22;38460;53.106;7.004;2022-09-09T14:41:54;19.40;99.90
52565;DHT22;38460;53.106;7.004;2022-09-09T14:44:20;19.30;99.90
52565;DHT22;38460;53.106;7.004;2022-09-09T14:46:46;19.30;99.90
52565;DHT22;38460;53.106;7.004;2022-09-09T14:49:11;19.30;99.90
52565;DHT22;38460;53.106;7.004;2022-09-09T14:51:38;19.30;99.90
52565;DHT22;38460;53.106;7.004;2022-09-09T14:54:04;19.30;99.90
52565;DHT22;38460;53.106;7.004;2022-09-09T14:56:32;19.30;99.90
52565;DHT22;38460;53.106;7.004;2022-09-09T14:59:01;19.30;99.90
52565;DHT22;38460;53.106;7.004;2022-09-09T15:01:28;19.30;99.90
52565;DHT22;38460;53.106;7.004;2022-09-09T15:03:57;19.30;99.90
52565;DHT22;38460;53.106;7.004;2022-09-09T15:06:30;19.30;99.90
52565;DHT22;38460;53.106;7.004;2022-09-09T15:08:57;19.20;99.90
52565;DHT22;38460;53.106;7.004;2022-09-09T15:11:23;19.20;99.90
52565;DHT22;38460;53.106;7.004;2022-09-09T15:13:51;19.10;99.90
52565;DHT22;38460;53.106;7.004;2022-09-09T15:16:19;19.10;99.90
52565;DHT22;38460;53.106;7.004;2022-09-09T15:18:46;19.00;99.90
52565;DHT22;38460;53.106;7.004;2022-09-09T15:21:28;18.90;99.90
52565;DHT22;38460;53.106;7.004;2022-09-09T15:23:55;18.80;99.90
52565;DHT22;38460;53.106;7.004;2022-09-09T15:26:22;18.70;99.90
52565;DHT22;38460;53.106;7.004;2022-09-09T15:28:48;18.60;99.90
52565;DHT22;38460;53.106;7.004;2022-09-09T15:31:29;18.60;99.90
52565;DHT22;38460;53.106;7.004;2022-09-09T15:34:00;18.50;99.90
52565;DHT22;38460;53.106;7.004;2022-09-09T15:38:54;18.40;99.90
52565;DHT22;38460;53.106;7.004;2022-09-09T15:41:21;18.40;99.90
52565;DHT22;38460;53.106;7.004;2022-09-09T15:43:49;18.40;99.90
52565;DHT22;38460;53.106;7.004;2022-09-09T15:48:58;18.50;99.90
52565;DHT22;38460;53.106;7.004;2022-09-09T15:51:25;18.50;99.90
52565;DHT22;38460;53.106;7.004;2022-09-09T15:53:57;18.50;99.90
52565;DHT22;38460;53.106;7.004;2022-09-09T15:56:25;18.50;99.90
52565;DHT22;38460;53.106;7.004;2022-09-09T15:58:51;18.60;99.90
52565;DHT22;38460;53.106;7.004;2022-09-09T16:01:18;18.60;99.90
52565;DHT22;38460;53.106;7.004;2022-09-09T16:03:44;18.70;99.90
52565;DHT22;38460;53.106;7.004;2022-09-09T16:06:15;18.70;99.90
52565;DHT22;38460;53.106;7.004;2022-09-09T16:08:43;18.70;99.90
52565;DHT22;38460;53.106;7.004;2022-09-09T16:11:18;18.80;99.90
52565;DHT22;38460;53.106;7.004;2022-09-09T16:13:46;18.80;99.90
52565;DHT22;38460;53.106;7.004;2022-09-09T16:16:13;18.80;99.90
52565;DHT22;38460;53.106;7.004;2022-09-09T16:18:41;18.80;99.90
52565;DHT22;38460;53.106;7.004;2022-09-09T16:21:13;18.80;99.90
52565;DHT22;38460;53.106;7.004;2022-09-09T16:23:39;18.90;99.90
52565;DHT22;38460;53.106;7.004;2022-09-09T16:26:05;18.90;99.90
52565;DHT22;38460;53.106;7.004;2022-09-09T16:28:31;18.90;99.90
52565;DHT22;38460;53.106;7.004;2022-09-09T16:30:57;18.90;99.90
52565;DHT22;38460;53.106;7.004;2022-09-09T16:33:24;18.90;99.90
52565;DHT22;38460;53.106;7.004;2022-09-09T16:35:51;18.90;99.90
52565;DHT22;38460;53.106;7.004;2022-09-09T16:38:17;18.90;99.90
52565;DHT22;38460;53.106;7.004;2022-09-09T16:40:43;18.90;99.90
52565;DHT22;38460;53.106;7.004;2022-09-09T16:43:09;18.90;99.90
52565;DHT22;38460;53.106;7.004;2022-09-09T16:45:44;18.80;99.90
52565;DHT22;38460;53.106;7.004;2022-09-09T16:48:11;18.80;99.90
52565;DHT22;38460;53.106;7.004;2022-09-09T16:50:37;18.80;99.90
52565;DHT22;38460;53.106;7.004;2022-09-09T16:53:04;18.70;99.90
52565;DHT22;38460;53.106;7.004;2022-09-09T16:55:32;18.70;99.90
52565;DHT22;38460;53.106;7.004;2022-09-09T16:57:58;18.60;99.90
52565;DHT22;38460;53.106;7.004;2022-09-09T17:00:23;18.60;99.90
52565;DHT22;38460;53.106;7.004;2022-09-09T17:02:49;18.50;99.90
52565;DHT22;38460;53.106;7.004;2022-09-09T17:05:15;18.50;99.90
52565;DHT22;38460;53.106;7.004;2022-09-09T17:07:40;18.40;99.90
52565;DHT22;38460;53.106;7.004;2022-09-09T17:10:06;18.40;99.90
52565;DHT22;38460;53.106;7.004;2022-09-09T17:12:33;18.30;99.90
52565;DHT22;38460;53.106;7.004;2022-09-09T17:14:58;18.30;99.90
52565;DHT22;38460;53.106;7.004;2022-09-09T17:17:26;18.30;99.90
52565;DHT22;38460;53.106;7.004;2022-09-09T17:19:52;18.20;99.90
52565;DHT22;38460;53.106;7.004;2022-09-09T17:22:18;18.20;99.90
52565;DHT22;38460;53.106;7.004;2022-09-09T17:24:46;18.20;99.90
52565;DHT22;38460;53.106;7.004;2022-09-09T17:27:11;18.10;99.90
52565;DHT22;38460;53.106;7.004;2022-09-09T17:29:38;18.10;99.90
52565;DHT22;38460;53.106;7.004;2022-09-09T17:32:05;18.10;99.90
52565;DHT22;38460;53.106;7.004;2022-09-09T17:34:36;18.10;99.90
52565;DHT22;38460;53.106;7.004;2022-09-09T17:37:02;18.00;99.90
52565;DHT22;38460;53.106;7.004;2022-09-09T17:39:30;18.00;99.90
52565;DHT22;38460;53.106;7.004;2022-09-09T17:41:56;17.90;99.90
52565;DHT22;38460;53.106;7.004;2022-09-09T17:44:22;17.90;99.90
52565;DHT22;38460;53.106;7.004;2022-09-09T17:46:48;17.90;99.90
52565;DHT22;38460;53.106;7.004;2022-09-09T17:49:16;17.80;99.90
52565;DHT22;38460;53.106;7.004;2022-09-09T17:51:45;17.80;99.90
52565;DHT22;38460;53.106;7.004;2022-09-09T17:54:16;17.80;99.90
52565;DHT22;38460;53.106;7.004;2022-09-09T17:56:42;17.80;99.90
52565;DHT22;38460;53.106;7.004;2022-09-09T17:59:10;17.80;99.90
52565;DHT22;38460;53.106;7.004;2022-09-09T18:01:39;17.70;99.90
52565;DHT22;38460;53.106;7.004;2022-09-09T18:04:06;17.70;99.90